createdAt,value
2023-03-29T00:00:11.528Z,100433.38
2023-03-29T00:02:43.438Z,100431.53
2023-03-29T00:05:12.405Z,100436.63
2023-03-29T00:07:39.955Z,100422.34
2023-03-29T00:10:10.077Z,100421.22
2023-03-29T00:12:41.995Z,100427.41
2023-03-29T00:15:09.968Z,100427.16
2023-03-29T00:17:37.779Z,100423.50
2023-03-29T00:20:10.358Z,100426.75
2023-03-29T00:22:39.944Z,100425.63
2023-03-29T00:25:08.458Z,100426.34
2023-03-29T00:27:36.076Z,100427.19
2023-03-29T00:30:05.743Z,100434.91
2023-03-29T00:32:34.073Z,100427.78
2023-03-29T00:35:02.768Z,100429.56
2023-03-29T00:37:30.835Z,100430.56
2023-03-29T00:39:58.973Z,100426.34
2023-03-29T00:42:26.944Z,100428.16
2023-03-29T00:45:09.805Z,100429.25
2023-03-29T00:47:37.622Z,100424.06
2023-03-29T00:50:15.870Z,100425.19
2023-03-29T00:52:48.737Z,100412.00
2023-03-29T00:55:21.896Z,100408.59
2023-03-29T00:57:52.326Z,100405.09
2023-03-29T01:00:24.403Z,100414.09
2023-03-29T01:02:55.542Z,100407.31
2023-03-29T01:05:32.233Z,100410.63
2023-03-29T01:08:09.044Z,100412.13
2023-03-29T01:10:41.551Z,100414.22
2023-03-29T01:13:14.704Z,100421.34
2023-03-29T01:15:45.990Z,100412.75
2023-03-29T01:18:14.221Z,100411.50
2023-03-29T01:21:10.209Z,100407.63
2023-03-29T01:23:40.940Z,100407.44
2023-03-29T01:26:14.439Z,100407.84
2023-03-29T01:28:57.215Z,100408.19
2023-03-29T01:31:29.555Z,100401.31
2023-03-29T01:34:10.845Z,100392.47
2023-03-29T01:36:49.684Z,100394.31
2023-03-29T01:39:19.093Z,100387.56
2023-03-29T01:41:52.795Z,100389.63
2023-03-29T01:44:31.670Z,100386.97
2023-03-29T01:47:25.434Z,100381.91
2023-03-29T01:50:05.649Z,100386.22
2023-03-29T01:52:42.947Z,100380.66
2023-03-29T01:55:18.582Z,100375.34
2023-03-29T01:57:48.630Z,100366.50
2023-03-29T02:00:24.902Z,100367.34
2023-03-29T02:02:55.611Z,100369.03
2023-03-29T02:05:24.576Z,100364.44
2023-03-29T02:07:53.352Z,100370.34
2023-03-29T02:10:23.325Z,100364.75
2023-03-29T02:12:50.873Z,100368.84
2023-03-29T02:15:20.662Z,100365.94
2023-03-29T02:17:51.123Z,100369.44
2023-03-29T02:20:23.754Z,100359.63
2023-03-29T02:23:14.529Z,100355.03
2023-03-29T02:25:43.663Z,100355.84
2023-03-29T02:28:11.885Z,100351.53
2023-03-29T02:30:57.975Z,100351.38
2023-03-29T02:33:36.798Z,100343.28
2023-03-29T02:36:14.799Z,100337.09
2023-03-29T02:38:42.522Z,100335.41
2023-03-29T02:41:11.099Z,100333.59
2023-03-29T02:43:41.834Z,100325.72
2023-03-29T02:46:11.427Z,100326.56
2023-03-29T02:48:41.407Z,100327.66
2023-03-29T02:51:19.784Z,100319.81
2023-03-29T02:54:06.462Z,100321.06
2023-03-29T02:56:48.408Z,100318.25
2023-03-29T02:59:19.590Z,100318.84
2023-03-29T03:01:47.467Z,100314.34
2023-03-29T03:04:15.935Z,100313.97
2023-03-29T03:06:44.762Z,100307.56
2023-03-29T03:09:12.796Z,100303.66
2023-03-29T03:11:43.223Z,100296.50
2023-03-29T03:14:10.993Z,100303.25
2023-03-29T03:16:38.886Z,100303.13
2023-03-29T03:19:07.056Z,100299.75
2023-03-29T03:21:35.357Z,100296.25
2023-03-29T03:24:02.989Z,100295.25
2023-03-29T03:26:30.756Z,100289.09
2023-03-29T03:28:58.386Z,100287.41
2023-03-29T03:31:44.810Z,100282.91
2023-03-29T03:34:31.016Z,100278.56
2023-03-29T03:37:01.989Z,100278.56
2023-03-29T03:39:32.823Z,100270.72
2023-03-29T03:42:02.312Z,100269.75
2023-03-29T03:44:30.600Z,100282.91
2023-03-29T03:47:15.212Z,100284.47
2023-03-29T03:49:43.537Z,100271.00
2023-03-29T03:52:11.908Z,100253.38
2023-03-29T03:54:40.498Z,100254.63
2023-03-29T03:57:26.585Z,100246.88
2023-03-29T03:59:54.618Z,100242.66
2023-03-29T04:02:28.313Z,100244.59
2023-03-29T04:04:56.182Z,100238.44
2023-03-29T04:07:30.864Z,100246.44
2023-03-29T04:10:06.240Z,100241.69
2023-03-29T04:13:06.276Z,100247.72
2023-03-29T04:15:39.164Z,100240.47
2023-03-29T04:18:10.352Z,100240.47
2023-03-29T04:20:43.904Z,100230.38
2023-03-29T04:23:12.496Z,100225.88
2023-03-29T04:25:41.542Z,100224.91
2023-03-29T04:28:31.915Z,100223.06
2023-03-29T04:31:17.130Z,100223.81
2023-03-29T04:33:54.144Z,100219.88
2023-03-29T04:36:21.856Z,100218.88
2023-03-29T04:38:52.346Z,100217.09
2023-03-29T04:41:28.753Z,100217.09
2023-03-29T04:43:59.892Z,100206.56
2023-03-29T04:46:32.501Z,100221.72
2023-03-29T04:49:12.689Z,100219.63
2023-03-29T04:51:43.818Z,100213.03
2023-03-29T04:54:12.123Z,100227.63
2023-03-29T04:57:08.301Z,100226.13
2023-03-29T04:59:46.483Z,100221.09
2023-03-29T05:02:34.424Z,100225.03
2023-03-29T05:05:03.096Z,100220.28
2023-03-29T05:07:31.380Z,100223.50
2023-03-29T05:09:59.672Z,100224.06
2023-03-29T05:12:27.693Z,100220.44
2023-03-29T05:14:57.883Z,100224.63
2023-03-29T05:17:27.645Z,100219.91
2023-03-29T05:20:01.413Z,100230.13
2023-03-29T05:22:29.843Z,100224.53
2023-03-29T05:24:57.634Z,100223.41
2023-03-29T05:27:25.551Z,100223.97
2023-03-29T05:30:01.938Z,100217.53
2023-03-29T05:32:37.415Z,100224.53
2023-03-29T05:35:06.883Z,100229.59
2023-03-29T05:37:35.760Z,100221.31
2023-03-29T05:40:07.142Z,100223.72
2023-03-29T05:42:44.393Z,100214.72
2023-03-29T05:45:12.259Z,100220.06
2023-03-29T05:47:41.730Z,100215.44
2023-03-29T05:50:10.399Z,100215.16
2023-03-29T05:52:38.910Z,100205.34
2023-03-29T05:55:07.538Z,100209.81
2023-03-29T05:57:38.570Z,100203.50
2023-03-29T06:00:25.886Z,100206.00
2023-03-29T06:03:17.717Z,100215.59
2023-03-29T06:05:50.009Z,100207.47
2023-03-29T06:08:18.241Z,100208.16
2023-03-29T06:10:45.713Z,100205.38
2023-03-29T06:13:28.709Z,100198.19
2023-03-29T06:15:56.633Z,100203.25
2023-03-29T06:18:26.260Z,100201.41
2023-03-29T06:20:54.063Z,100206.63
2023-03-29T06:23:22.435Z,100201.84
2023-03-29T06:25:53.404Z,100194.53
2023-03-29T06:28:21.659Z,100193.28
2023-03-29T06:30:50.245Z,100194.97
2023-03-29T06:33:18.863Z,100190.19
2023-03-29T06:35:54.796Z,100177.84
2023-03-29T06:38:29.374Z,100177.53
2023-03-29T06:41:05.280Z,100175.56
2023-03-29T06:43:50.593Z,100170.22
2023-03-29T06:46:19.116Z,100161.94
2023-03-29T06:49:01.899Z,100148.16
2023-03-29T06:51:48.857Z,100153.34
2023-03-29T06:54:17.356Z,100156.72
2023-03-29T06:56:57.919Z,100150.22
2023-03-29T06:59:26.729Z,100147.97
2023-03-29T07:01:58.664Z,100154.72
2023-03-29T07:04:41.982Z,100142.63
2023-03-29T07:07:43.984Z,100138.00
2023-03-29T07:10:37.674Z,100137.81
2023-03-29T07:13:23.752Z,100133.88
2023-03-29T07:15:53.467Z,100132.03
2023-03-29T07:18:25.971Z,100129.78
2023-03-29T07:20:53.608Z,100132.31
2023-03-29T07:23:21.476Z,100126.66
2023-03-29T07:25:51.341Z,100127.34
2023-03-29T07:28:20.172Z,100123.56
2023-03-29T07:30:47.782Z,100119.59
2023-03-29T07:33:21.693Z,100130.28
2023-03-29T07:35:52.440Z,100132.28
2023-03-29T07:38:20.709Z,100129.16
2023-03-29T07:40:54.597Z,100132.91
2023-03-29T07:43:34.806Z,100135.00
2023-03-29T07:46:05.132Z,100126.69
2023-03-29T07:48:37.229Z,100119.38
2023-03-29T07:51:10.099Z,100116.53
2023-03-29T07:53:49.849Z,100106.38
2023-03-29T07:56:32.788Z,100101.28
2023-03-29T07:59:12.929Z,100096.16
2023-03-29T08:01:42.753Z,100093.88
2023-03-29T08:04:30.026Z,100097.09
2023-03-29T08:07:20.064Z,100094.97
2023-03-29T08:10:10.636Z,100093.41
2023-03-29T08:13:04.813Z,100083.88
2023-03-29T08:15:52.702Z,100084.03
2023-03-29T08:18:28.027Z,100084.88
2023-03-29T08:20:55.818Z,100081.19
2023-03-29T08:23:23.822Z,100069.66
2023-03-29T08:25:54.179Z,100065.16
2023-03-29T08:28:22.418Z,100057.84
2023-03-29T08:30:52.878Z,100056.84
2023-03-29T08:33:20.828Z,100055.88
2023-03-29T08:35:57.349Z,100057.53
2023-03-29T08:38:31.418Z,100046.38
2023-03-29T08:40:59.189Z,100052.28
2023-03-29T08:43:55.575Z,100041.59
2023-03-29T08:46:55.305Z,100041.09
2023-03-29T08:49:29.344Z,100032.91
2023-03-29T08:52:02.671Z,100027.97
2023-03-29T08:54:44.381Z,100016.25
2023-03-29T08:57:41.758Z,100006.13
2023-03-29T09:00:36.997Z,99997.97
2023-03-29T09:03:23.662Z,100001.00
2023-03-29T09:06:00.288Z,99997.03
2023-03-29T09:08:28.675Z,100001.22
2023-03-29T09:11:09.250Z,99999.09
2023-03-29T09:13:41.751Z,100003.25
2023-03-29T09:16:18.637Z,99988.59
2023-03-29T09:19:31.448Z,99992.44
2023-03-29T09:22:05.518Z,99979.28
2023-03-29T09:24:55.193Z,99969.97
2023-03-29T09:27:34.909Z,99973.16
2023-03-29T09:30:41.666Z,99973.81
2023-03-29T09:33:31.655Z,99979.16
2023-03-29T09:36:31.948Z,99965.63
2023-03-29T09:39:00.725Z,99964.63
2023-03-29T09:41:41.715Z,99969.84
2023-03-29T09:44:28.221Z,99960.81
2023-03-29T09:47:09.218Z,99957.94
2023-03-29T09:49:43.648Z,99949.78
2023-03-29T09:52:15.196Z,99945.25
2023-03-29T09:54:48.711Z,99945.13
2023-03-29T09:57:39.309Z,99945.94
2023-03-29T10:00:10.708Z,99930.72
2023-03-29T10:02:54.792Z,99931.56
2023-03-29T10:05:33.122Z,99932.06
2023-03-29T10:08:02.726Z,99925.38
2023-03-29T10:10:33.644Z,99917.53
2023-03-29T10:13:05.652Z,99914.91
2023-03-29T10:15:33.231Z,99913.25
2023-03-29T10:18:03.764Z,99911.06
2023-03-29T10:20:34.892Z,99912.78
2023-03-29T10:23:02.583Z,99911.44
2023-03-29T10:25:33.159Z,99909.41
2023-03-29T10:28:12.148Z,99911.75
2023-03-29T10:30:40.328Z,99904.09
2023-03-29T10:33:17.728Z,99895.91
2023-03-29T10:35:47.430Z,99894.91
2023-03-29T10:38:18.872Z,99886.53
2023-03-29T10:40:49.685Z,99882.34
2023-03-29T10:43:17.509Z,99887.69
2023-03-29T10:45:49.158Z,99898.75
2023-03-29T10:48:17.881Z,99890.72
2023-03-29T10:50:53.092Z,99888.53
2023-03-29T10:53:29.548Z,99895.72
2023-03-29T10:56:03.407Z,99887.19
2023-03-29T10:58:46.240Z,99876.66
2023-03-29T11:01:25.103Z,99866.25
2023-03-29T11:03:59.023Z,99874.97
2023-03-29T11:07:07.209Z,99861.91
2023-03-29T11:09:41.158Z,99850.53
2023-03-29T11:12:18.151Z,99849.84
2023-03-29T11:14:53.343Z,99838.31
2023-03-29T11:17:34.943Z,99841.97
2023-03-29T11:20:33.362Z,99826.22
2023-03-29T11:23:32.354Z,99824.47
2023-03-29T11:26:17.433Z,99822.56
2023-03-29T11:28:57.323Z,99818.47
2023-03-29T11:31:41.524Z,99816.78
2023-03-29T11:34:35.176Z,99823.50
2023-03-29T11:37:14.567Z,99814.63
2023-03-29T11:40:20.021Z,99807.69
2023-03-29T11:42:52.614Z,99810.03
2023-03-29T11:45:32.673Z,99794.28
2023-03-29T11:48:02.838Z,99791.25
2023-03-29T11:50:40.122Z,99799.63
2023-03-29T11:53:20.267Z,99785.44
2023-03-29T11:55:51.502Z,99776.16
2023-03-29T11:58:27.672Z,99767.94
2023-03-29T12:01:01.894Z,99754.59
2023-03-29T12:03:56.002Z,99769.91
2023-03-29T12:06:39.898Z,99777.25
2023-03-29T12:09:38.732Z,99757.97
2023-03-29T12:12:14.104Z,99751.97
2023-03-29T12:15:07.367Z,99745.25
2023-03-29T12:17:44.309Z,99739.91
2023-03-29T12:20:21.729Z,99732.53
2023-03-29T12:22:51.911Z,99731.16
2023-03-29T12:25:44.213Z,99714.56
2023-03-29T12:31:22.102Z,99703.13
2023-03-29T12:34:05.316Z,99701.66
2023-03-29T12:37:36.085Z,99697.63
2023-03-29T12:40:28.668Z,99684.00
2023-03-29T12:43:43.702Z,99684.34
2023-03-29T12:46:58.336Z,99672.19
2023-03-29T12:53:38.161Z,99661.16
2023-03-29T12:56:08.893Z,99664.97
2023-03-29T12:58:40.226Z,99667.13
2023-03-29T13:01:48.253Z,99657.47
2023-03-29T13:04:54.316Z,99651.47
2023-03-29T13:07:28.021Z,99643.84
2023-03-29T13:09:58.880Z,99634.72
2023-03-29T13:12:37.714Z,99635.81
2023-03-29T13:15:27.396Z,99628.06
2023-03-29T13:18:26.590Z,99623.75
2023-03-29T13:21:10.906Z,99610.03
2023-03-29T13:23:55.826Z,99618.31
2023-03-29T13:26:29.466Z,99598.81
2023-03-29T13:29:35.384Z,99600.06
2023-03-29T13:32:28.490Z,99595.41
2023-03-29T13:35:18.698Z,99589.59
2023-03-29T13:38:13.302Z,99586.50
2023-03-29T13:40:42.235Z,99582.38
2023-03-29T13:43:22.501Z,99585.59
2023-03-29T13:45:59.343Z,99574.06
2023-03-29T13:48:50.288Z,99575.25
2023-03-29T13:51:17.988Z,99564.41
2023-03-29T13:54:01.354Z,99567.06
2023-03-29T13:56:55.103Z,99548.03
2023-03-29T13:59:32.307Z,99534.31
2023-03-29T14:02:03.125Z,99526.63
2023-03-29T14:04:45.223Z,99513.91
2023-03-29T14:07:14.949Z,99504.44
2023-03-29T14:09:46.269Z,99499.72
2023-03-29T14:12:15.753Z,99498.41
2023-03-29T14:14:58.400Z,99488.84
2023-03-29T14:17:27.442Z,99485.00
2023-03-29T14:19:58.676Z,99489.50
2023-03-29T14:22:32.459Z,99485.66
2023-03-29T14:25:13.597Z,99482.44
2023-03-29T14:27:41.863Z,99471.72
2023-03-29T14:30:29.538Z,99452.94
2023-03-29T14:32:57.544Z,99447.19
2023-03-29T14:35:32.382Z,99447.19
2023-03-29T14:38:01.819Z,99433.53
2023-03-29T14:40:30.933Z,99430.69
2023-03-29T14:43:08.077Z,99444.13
2023-03-29T14:45:36.473Z,99426.75
2023-03-29T14:48:04.795Z,99427.91
2023-03-29T14:50:34.122Z,99418.56
2023-03-29T14:53:02.053Z,99428.44
2023-03-29T14:55:31.053Z,99420.09
2023-03-29T14:58:00.357Z,99423.09
2023-03-29T15:00:30.704Z,99419.94
2023-03-29T15:03:01.455Z,99414.94
2023-03-29T15:05:39.287Z,99412.94
2023-03-29T15:08:10.506Z,99408.91
2023-03-29T15:10:38.954Z,99404.88
2023-03-29T15:13:08.491Z,99399.00
2023-03-29T15:15:39.141Z,99396.63
2023-03-29T15:18:10.716Z,99381.53
2023-03-29T15:20:41.544Z,99388.72
2023-03-29T15:23:20.086Z,99382.16
2023-03-29T15:25:51.907Z,99379.97
2023-03-29T15:28:32.620Z,99371.34
2023-03-29T15:33:37.627Z,99370.00
2023-03-29T15:36:07.017Z,99365.91
2023-03-29T15:38:43.816Z,99360.31
2023-03-29T15:41:13.779Z,99370.81
2023-03-29T15:43:44.928Z,99374.41
2023-03-29T15:46:16.718Z,99351.22
2023-03-29T15:48:44.473Z,99352.88
2023-03-29T15:51:12.822Z,99346.28
2023-03-29T15:53:41.082Z,99343.22
2023-03-29T15:56:12.837Z,99343.03
2023-03-29T15:58:40.489Z,99337.09
2023-03-29T16:01:23.808Z,99334.78
2023-03-29T16:03:51.522Z,99321.16
2023-03-29T16:06:22.297Z,99314.78
2023-03-29T16:08:49.944Z,99324.59
2023-03-29T16:11:17.602Z,99324.22
2023-03-29T16:13:45.220Z,99330.50
2023-03-29T16:16:12.996Z,99328.09
2023-03-29T16:18:40.647Z,99330.47
2023-03-29T16:21:13.473Z,99317.03
2023-03-29T16:23:41.890Z,99312.31
2023-03-29T16:26:12.650Z,99304.38
2023-03-29T16:28:41.249Z,99293.09
2023-03-29T16:31:15.064Z,99273.59
2023-03-29T16:33:42.835Z,99287.56
2023-03-29T16:36:11.016Z,99267.31
2023-03-29T16:38:38.786Z,99271.47
2023-03-29T16:41:07.282Z,99268.22
2023-03-29T16:43:35.467Z,99254.63
2023-03-29T16:46:04.094Z,99244.66
2023-03-29T16:48:32.080Z,99258.50
2023-03-29T16:50:59.934Z,99255.75
2023-03-29T16:53:28.662Z,99255.84
2023-03-29T16:55:57.563Z,99262.09
2023-03-29T16:58:25.126Z,99268.97
2023-03-29T17:00:53.754Z,99273.50
2023-03-29T17:03:21.801Z,99274.69
2023-03-29T17:05:52.003Z,99276.09
2023-03-29T17:08:21.442Z,99272.09
2023-03-29T17:10:54.090Z,99275.50
2023-03-29T17:13:26.056Z,99268.50
2023-03-29T17:15:55.658Z,99266.38
2023-03-29T17:18:26.461Z,99270.63
2023-03-29T17:20:58.880Z,99271.19
2023-03-29T17:23:26.849Z,99257.31
2023-03-29T17:25:56.086Z,99258.69
2023-03-29T17:28:24.303Z,99251.84
2023-03-29T17:30:52.427Z,99250.94
2023-03-29T17:33:26.246Z,99250.47
2023-03-29T17:35:54.009Z,99255.84
2023-03-29T17:38:21.855Z,99250.00
2023-03-29T17:40:55.934Z,99242.16
2023-03-29T17:43:23.557Z,99246.03
2023-03-29T17:45:52.327Z,99244.75
2023-03-29T17:48:20.260Z,99234.38
2023-03-29T17:50:47.883Z,99235.19
2023-03-29T17:53:15.815Z,99255.81
2023-03-29T17:55:43.357Z,99257.81
2023-03-29T17:58:11.153Z,99250.97
2023-03-29T18:00:38.810Z,99248.28
2023-03-29T18:03:06.765Z,99247.47
2023-03-29T18:05:35.911Z,99249.31
2023-03-29T18:08:03.942Z,99241.19
2023-03-29T18:10:32.491Z,99244.84
2023-03-29T18:13:00.698Z,99239.03
2023-03-29T18:15:28.334Z,99252.44
2023-03-29T18:17:56.274Z,99251.78
2023-03-29T18:20:24.177Z,99244.13
2023-03-29T18:22:51.847Z,99241.81
2023-03-29T18:25:20.137Z,99254.53
2023-03-29T18:27:47.779Z,99253.03
2023-03-29T18:30:16.856Z,99251.59
2023-03-29T18:32:44.872Z,99251.94
2023-03-29T18:35:12.473Z,99247.94
2023-03-29T18:37:40.141Z,99254.88
2023-03-29T18:40:08.983Z,99257.91
2023-03-29T18:42:36.692Z,99256.59
2023-03-29T18:45:05.099Z,99249.09
2023-03-29T18:47:33.200Z,99244.56
2023-03-29T18:50:02.480Z,99243.94
2023-03-29T18:52:30.126Z,99241.78
2023-03-29T18:54:57.681Z,99251.66
2023-03-29T18:57:25.370Z,99251.19
2023-03-29T18:59:52.955Z,99257.38
2023-03-29T19:02:20.931Z,99254.88
2023-03-29T19:04:50.130Z,99255.88
2023-03-29T19:07:19.240Z,99250.03
2023-03-29T19:09:47.470Z,99248.75
2023-03-29T19:12:15.679Z,99246.25
2023-03-29T19:14:44.127Z,99249.75
2023-03-29T19:17:12.327Z,99244.94
2023-03-29T19:19:39.957Z,99236.25
2023-03-29T19:22:07.591Z,99237.09
2023-03-29T19:24:35.164Z,99238.94
2023-03-29T19:27:03.134Z,99239.94
2023-03-29T19:29:30.804Z,99236.06
2023-03-29T19:31:58.721Z,99231.75
2023-03-29T19:34:26.876Z,99227.56
2023-03-29T19:36:55.300Z,99224.22
2023-03-29T19:39:23.497Z,99226.91
2023-03-29T19:41:51.402Z,99222.09
2023-03-29T19:44:20.090Z,99228.63
2023-03-29T19:46:47.673Z,99224.66
2023-03-29T19:49:15.624Z,99229.34
2023-03-29T19:51:43.921Z,99235.88
2023-03-29T19:54:13.899Z,99234.09
2023-03-29T19:56:42.998Z,99237.81
2023-03-29T19:59:17.800Z,99243.03
2023-03-29T20:01:51.012Z,99244.06
2023-03-29T20:04:21.033Z,99245.94
2023-03-29T20:06:49.162Z,99234.28
2023-03-29T20:09:16.683Z,99238.47
2023-03-29T20:11:46.786Z,99238.97
2023-03-29T20:14:14.478Z,99233.13
2023-03-29T20:16:43.341Z,99228.13
2023-03-29T20:19:11.075Z,99227.31
2023-03-29T20:21:38.690Z,99220.47
2023-03-29T20:24:08.663Z,99217.31
2023-03-29T20:26:36.610Z,99216.00
2023-03-29T20:29:04.199Z,99220.84
2023-03-29T20:31:31.825Z,99224.06
2023-03-29T20:33:59.448Z,99221.38
2023-03-29T20:36:30.654Z,99224.22
2023-03-29T20:38:59.398Z,99232.41
2023-03-29T20:41:27.196Z,99244.25
2023-03-29T20:43:58.626Z,99236.41
2023-03-29T20:46:33.817Z,99245.44
2023-03-29T20:49:03.275Z,99249.94
2023-03-29T20:51:32.197Z,99246.09
2023-03-29T20:54:04.957Z,99249.41
2023-03-29T20:56:35.535Z,99244.91
2023-03-29T20:59:04.187Z,99248.44
2023-03-29T21:01:35.060Z,99250.44
2023-03-29T21:04:03.179Z,99243.78
2023-03-29T21:06:31.690Z,99243.91
2023-03-29T21:08:59.277Z,99251.44
2023-03-29T21:11:28.693Z,99243.97
2023-03-29T21:13:56.326Z,99242.59
2023-03-29T21:16:25.329Z,99238.63
2023-03-29T21:18:53.380Z,99226.63
2023-03-29T21:21:22.766Z,99226.28
2023-03-29T21:23:50.590Z,99222.13
2023-03-29T21:26:18.470Z,99218.94
2023-03-29T21:28:47.152Z,99224.47
2023-03-29T21:31:14.834Z,99224.78
2023-03-29T21:33:42.501Z,99231.28
2023-03-29T21:36:10.109Z,99229.81
2023-03-29T21:38:37.735Z,99235.81
2023-03-29T21:41:07.042Z,99235.31
2023-03-29T21:43:34.601Z,99239.47
2023-03-29T21:46:02.183Z,99242.13
2023-03-29T21:48:30.699Z,99245.63
2023-03-29T21:50:58.366Z,99242.09
2023-03-29T21:53:26.082Z,99247.09
2023-03-29T21:55:53.866Z,99243.91
2023-03-29T21:58:21.484Z,99251.41
2023-03-29T22:00:49.209Z,99249.41
2023-03-29T22:03:17.178Z,99242.03
2023-03-29T22:05:59.199Z,99246.22
2023-03-29T22:08:26.912Z,99247.03
2023-03-29T22:10:56.992Z,99248.72
2023-03-29T22:13:27.061Z,99247.72
2023-03-29T22:16:01.282Z,99243.19
2023-03-29T22:18:30.525Z,99241.34
2023-03-29T22:20:58.199Z,99246.53
2023-03-29T22:23:25.847Z,99242.38
2023-03-29T22:25:53.457Z,99239.22
2023-03-29T22:28:21.162Z,99239.56
2023-03-29T22:30:48.915Z,99238.88
2023-03-29T22:33:16.762Z,99235.56
2023-03-29T22:35:44.377Z,99231.19
2023-03-29T22:38:11.932Z,99231.53
2023-03-29T22:40:40.849Z,99227.41
2023-03-29T22:43:08.368Z,99230.56
2023-03-29T22:45:36.469Z,99229.44
2023-03-29T22:48:04.289Z,99229.78
2023-03-29T22:50:31.805Z,99227.59
2023-03-29T22:52:59.301Z,99230.78
2023-03-29T22:55:27.288Z,99219.94
2023-03-29T22:57:54.976Z,99226.59
2023-03-29T23:00:22.497Z,99230.47
2023-03-29T23:02:50.042Z,99231.13
2023-03-29T23:05:17.644Z,99234.13
2023-03-29T23:07:45.192Z,99234.44
2023-03-29T23:10:12.918Z,99237.63
2023-03-29T23:12:42.929Z,99241.78
2023-03-29T23:15:11.509Z,99239.78
2023-03-29T23:17:39.082Z,99236.78
2023-03-29T23:20:07.380Z,99236.09
2023-03-29T23:22:36.409Z,99230.94
2023-03-29T23:25:04.282Z,99232.78
2023-03-29T23:27:32.792Z,99228.41
2023-03-29T23:30:01.660Z,99223.59
2023-03-29T23:32:29.249Z,99224.78
2023-03-29T23:34:56.902Z,99224.63
2023-03-29T23:37:25.008Z,99219.13
2023-03-29T23:39:52.592Z,99219.63
2023-03-29T23:42:21.114Z,99223.97
2023-03-29T23:44:48.654Z,99225.50
2023-03-29T23:47:16.779Z,99224.13
2023-03-29T23:49:45.504Z,99226.78
2023-03-29T23:52:13.263Z,99225.81
2023-03-29T23:54:40.921Z,99223.31
2023-03-29T23:57:08.564Z,99223.97
2023-03-29T23:59:37.792Z,99234.13
